sensor_id;sensor_type;location;lat;lon;timestamp;temperature;humidity
10123;DHT22;5101;49.038;8.710;2023-05-10T00:01:27;14.90;99.90
10123;DHT22;5101;49.038;8.710;2023-05-10T00:03:53;14.90;99.90
10123;DHT22;5101;49.038;8.710;2023-05-10T00:06:18;15.00;99.90
10123;DHT22;5101;49.038;8.710;2023-05-10T00:08:45;15.00;99.90
10123;DHT22;5101;49.038;8.710;2023-05-10T00:11:10;14.90;99.90
10123;DHT22;5101;49.038;8.710;2023-05-10T00:13:36;14.80;99.90
10123;DHT22;5101;49.038;8.710;2023-05-10T00:16:02;14.80;99.90
10123;DHT22;5101;49.038;8.710;2023-05-10T00:18:27;14.80;99.90
10123;DHT22;5101;49.038;8.710;2023-05-10T00:20:53;14.70;99.90
10123;DHT22;5101;49.038;8.710;2023-05-10T00:23:18;14.80;99.90
10123;DHT22;5101;49.038;8.710;2023-05-10T00:25:44;14.70;99.90
10123;DHT22;5101;49.038;8.710;2023-05-10T00:28:09;14.70;99.90
10123;DHT22;5101;49.038;8.710;2023-05-10T00:30:35;14.70;99.90
10123;DHT22;5101;49.038;8.710;2023-05-10T00:33:00;14.60;99.90
10123;DHT22;5101;49.038;8.710;2023-05-10T00:35:26;14.60;99.90
10123;DHT22;5101;49.038;8.710;2023-05-10T00:37:52;14.60;99.90
10123;DHT22;5101;49.038;8.710;2023-05-10T00:40:17;14.60;99.90
10123;DHT22;5101;49.038;8.710;2023-05-10T00:42:42;14.60;99.90
10123;DHT22;5101;49.038;8.710;2023-05-10T00:45:08;14.60;99.90
10123;DHT22;5101;49.038;8.710;2023-05-10T00:47:34;14.60;99.90
10123;DHT22;5101;49.038;8.710;2023-05-10T00:50:00;14.60;99.90
10123;DHT22;5101;49.038;8.710;2023-05-10T00:52:28;14.50;99.90
10123;DHT22;5101;49.038;8.710;2023-05-10T00:54:54;14.50;99.90
10123;DHT22;5101;49.038;8.710;2023-05-10T00:57:20;14.50;99.90
10123;DHT22;5101;49.038;8.710;2023-05-10T00:59:46;14.50;99.90
10123;DHT22;5101;49.038;8.710;2023-05-10T01:02:11;14.50;99.90
10123;DHT22;5101;49.038;8.710;2023-05-10T01:04:38;14.50;99.90
10123;DHT22;5101;49.038;8.710;2023-05-10T01:07:04;14.50;99.90
10123;DHT22;5101;49.038;8.710;2023-05-10T01:09:30;14.50;99.90
10123;DHT22;5101;49.038;8.710;2023-05-10T01:11:56;14.50;99.90
10123;DHT22;5101;49.038;8.710;2023-05-10T01:14:22;14.50;99.90
10123;DHT22;5101;49.038;8.710;2023-05-10T01:16:49;14.40;99.90
10123;DHT22;5101;49.038;8.710;2023-05-10T01:19:26;14.40;99.90
10123;DHT22;5101;49.038;8.710;2023-05-10T01:22:29;14.40;99.90
10123;DHT22;5101;49.038;8.710;2023-05-10T01:25:18;14.40;99.90
10123;DHT22;5101;49.038;8.710;2023-05-10T01:33:55;14.30;99.90
10123;DHT22;5101;49.038;8.710;2023-05-10T01:36:35;14.30;99.90
10123;DHT22;5101;49.038;8.710;2023-05-10T01:39:17;14.30;99.90
10123;DHT22;5101;49.038;8.710;2023-05-10T01:41:52;14.30;99.90
10123;DHT22;5101;49.038;8.710;2023-05-10T01:44:42;14.30;99.90
10123;DHT22;5101;49.038;8.710;2023-05-10T01:47:31;14.30;99.90
10123;DHT22;5101;49.038;8.710;2023-05-10T01:50:02;14.30;99.90
10123;DHT22;5101;49.038;8.710;2023-05-10T01:52:33;14.30;99.90
10123;DHT22;5101;49.038;8.710;2023-05-10T01:55:05;14.30;99.90
10123;DHT22;5101;49.038;8.710;2023-05-10T01:57:36;14.30;99.90
10123;DHT22;5101;49.038;8.710;2023-05-10T02:00:03;14.30;99.90
10123;DHT22;5101;49.038;8.710;2023-05-10T02:02:35;14.20;99.90
10123;DHT22;5101;49.038;8.710;2023-05-10T02:05:03;14.30;99.90
10123;DHT22;5101;49.038;8.710;2023-05-10T02:07:31;14.30;99.90
10123;DHT22;5101;49.038;8.710;2023-05-10T02:09:58;14.30;99.90
10123;DHT22;5101;49.038;8.710;2023-05-10T02:12:25;14.30;99.90
10123;DHT22;5101;49.038;8.710;2023-05-10T02:14:52;14.30;99.90
10123;DHT22;5101;49.038;8.710;2023-05-10T02:17:19;14.30;99.90
10123;DHT22;5101;49.038;8.710;2023-05-10T02:19:46;14.30;99.90
10123;DHT22;5101;49.038;8.710;2023-05-10T02:22:12;14.30;99.90
10123;DHT22;5101;49.038;8.710;2023-05-10T02:24:39;14.30;99.90
10123;DHT22;5101;49.038;8.710;2023-05-10T02:27:06;14.30;99.90
10123;DHT22;5101;49.038;8.710;2023-05-10T02:29:32;14.30;99.90
10123;DHT22;5101;49.038;8.710;2023-05-10T02:31:59;14.30;99.90
10123;DHT22;5101;49.038;8.710;2023-05-10T02:34:26;14.30;99.90
10123;DHT22;5101;49.038;8.710;2023-05-10T02:36:53;14.30;99.90
10123;DHT22;5101;49.038;8.710;2023-05-10T02:39:20;14.40;99.90
10123;DHT22;5101;49.038;8.710;2023-05-10T02:41:48;14.30;99.90
10123;DHT22;5101;49.038;8.710;2023-05-10T02:44:17;14.40;99.90
10123;DHT22;5101;49.038;8.710;2023-05-10T02:46:43;14.40;99.90
10123;DHT22;5101;49.038;8.710;2023-05-10T02:49:09;14.40;99.90
10123;DHT22;5101;49.038;8.710;2023-05-10T02:51:37;14.30;99.90
10123;DHT22;5101;49.038;8.710;2023-05-10T02:54:18;14.40;99.90
10123;DHT22;5101;49.038;8.710;2023-05-10T02:56:47;14.40;99.90
10123;DHT22;5101;49.038;8.710;2023-05-10T02:59:14;14.40;99.90
10123;DHT22;5101;49.038;8.710;2023-05-10T03:01:40;14.40;99.90
10123;DHT22;5101;49.038;8.710;2023-05-10T03:04:05;14.40;99.90
10123;DHT22;5101;49.038;8.710;2023-05-10T03:06:31;14.40;99.90
10123;DHT22;5101;49.038;8.710;2023-05-10T03:08:57;14.40;99.90
10123;DHT22;5101;49.038;8.710;2023-05-10T03:14:16;14.40;99.90
10123;DHT22;5101;49.038;8.710;2023-05-10T03:16:47;14.40;99.90
10123;DHT22;5101;49.038;8.710;2023-05-10T03:20:06;14.50;99.90
10123;DHT22;5101;49.038;8.710;2023-05-10T03:22:13;14.50;99.90
10123;DHT22;5101;49.038;8.710;2023-05-10T03:24:44;14.50;99.90
10123;DHT22;5101;49.038;8.710;2023-05-10T03:27:10;14.40;99.90
10123;DHT22;5101;49.038;8.710;2023-05-10T03:29:38;14.40;99.90
10123;DHT22;5101;49.038;8.710;2023-05-10T03:32:04;14.40;99.90
10123;DHT22;5101;49.038;8.710;2023-05-10T03:34:30;14.40;99.90
10123;DHT22;5101;49.038;8.710;2023-05-10T03:36:56;14.40;99.90
10123;DHT22;5101;49.038;8.710;2023-05-10T03:39:22;14.40;99.90
10123;DHT22;5101;49.038;8.710;2023-05-10T03:41:47;14.40;99.90
10123;DHT22;5101;49.038;8.710;2023-05-10T03:44:13;14.40;99.90
10123;DHT22;5101;49.038;8.710;2023-05-10T03:46:38;14.40;99.90
10123;DHT22;5101;49.038;8.710;2023-05-10T03:49:04;14.40;99.90
10123;DHT22;5101;49.038;8.710;2023-05-10T03:51:29;14.40;99.90
10123;DHT22;5101;49.038;8.710;2023-05-10T03:53:56;14.40;99.90
10123;DHT22;5101;49.038;8.710;2023-05-10T03:56:22;14.40;99.90
10123;DHT22;5101;49.038;8.710;2023-05-10T03:58:47;14.40;99.90
10123;DHT22;5101;49.038;8.710;2023-05-10T04:01:13;14.40;99.90
10123;DHT22;5101;49.038;8.710;2023-05-10T04:03:38;14.40;99.90
10123;DHT22;5101;49.038;8.710;2023-05-10T04:06:04;14.40;99.90
10123;DHT22;5101;49.038;8.710;2023-05-10T04:08:31;14.40;99.90
10123;DHT22;5101;49.038;8.710;2023-05-10T04:11:10;14.40;99.90
10123;DHT22;5101;49.038;8.710;2023-05-10T04:13:37;14.40;99.90
10123;DHT22;5101;49.038;8.710;2023-05-10T04:16:03;14.40;99.90
10123;DHT22;5101;49.038;8.710;2023-05-10T04:18:29;14.30;99.90
10123;DHT22;5101;49.038;8.710;2023-05-10T04:20:55;14.30;99.90
10123;DHT22;5101;49.038;8.710;2023-05-10T04:23:20;14.40;99.90
10123;DHT22;5101;49.038;8.710;2023-05-10T04:25:46;14.40;99.90
10123;DHT22;5101;49.038;8.710;2023-05-10T04:28:11;14.40;99.90
10123;DHT22;5101;49.038;8.710;2023-05-10T04:30:37;14.40;99.90
10123;DHT22;5101;49.038;8.710;2023-05-10T04:33:02;14.40;99.90
10123;DHT22;5101;49.038;8.710;2023-05-10T04:35:28;14.40;99.90
10123;DHT22;5101;49.038;8.710;2023-05-10T04:37:54;14.40;99.90
10123;DHT22;5101;49.038;8.710;2023-05-10T04:40:20;14.40;99.90
10123;DHT22;5101;49.038;8.710;2023-05-10T04:42:46;14.40;99.90
10123;DHT22;5101;49.038;8.710;2023-05-10T04:45:11;14.50;99.90
10123;DHT22;5101;49.038;8.710;2023-05-10T04:47:37;14.50;99.90
10123;DHT22;5101;49.038;8.710;2023-05-10T04:50:04;14.50;99.90
10123;DHT22;5101;49.038;8.710;2023-05-10T04:52:29;14.50;99.90
10123;DHT22;5101;49.038;8.710;2023-05-10T04:54:55;14.50;99.90
10123;DHT22;5101;49.038;8.710;2023-05-10T04:57:20;14.50;99.90
10123;DHT22;5101;49.038;8.710;2023-05-10T04:59:46;14.50;99.90
10123;DHT22;5101;49.038;8.710;2023-05-10T05:02:12;14.50;99.90
10123;DHT22;5101;49.038;8.710;2023-05-10T05:04:37;14.50;99.90
10123;DHT22;5101;49.038;8.710;2023-05-10T05:07:03;14.50;99.90
10123;DHT22;5101;49.038;8.710;2023-05-10T05:09:28;14.60;99.90
10123;DHT22;5101;49.038;8.710;2023-05-10T05:11:54;14.50;99.90
10123;DHT22;5101;49.038;8.710;2023-05-10T05:14:19;14.50;99.90
10123;DHT22;5101;49.038;8.710;2023-05-10T05:16:46;14.60;99.90
10123;DHT22;5101;49.038;8.710;2023-05-10T05:19:11;14.60;99.90
10123;DHT22;5101;49.038;8.710;2023-05-10T05:21:37;14.60;99.90
10123;DHT22;5101;49.038;8.710;2023-05-10T05:24:03;14.60;99.90
10123;DHT22;5101;49.038;8.710;2023-05-10T05:26:28;14.70;99.90
10123;DHT22;5101;49.038;8.710;2023-05-10T05:28:54;14.70;99.90
10123;DHT22;5101;49.038;8.710;2023-05-10T05:31:20;14.70;99.90
10123;DHT22;5101;49.038;8.710;2023-05-10T05:33:45;14.70;99.90
10123;DHT22;5101;49.038;8.710;2023-05-10T05:36:11;14.70;99.90
10123;DHT22;5101;49.038;8.710;2023-05-10T05:38:37;14.80;99.90
10123;DHT22;5101;49.038;8.710;2023-05-10T05:41:02;14.70;99.90
10123;DHT22;5101;49.038;8.710;2023-05-10T05:43:28;14.80;99.90
10123;DHT22;5101;49.038;8.710;2023-05-10T05:45:54;14.80;99.90
10123;DHT22;5101;49.038;8.710;2023-05-10T05:48:20;14.90;99.90
10123;DHT22;5101;49.038;8.710;2023-05-10T05:50:45;14.90;99.90
10123;DHT22;5101;49.038;8.710;2023-05-10T05:53:12;14.90;99.90
10123;DHT22;5101;49.038;8.710;2023-05-10T05:55:37;14.90;99.90
10123;DHT22;5101;49.038;8.710;2023-05-10T05:58:03;14.90;99.90
10123;DHT22;5101;49.038;8.710;2023-05-10T06:00:28;14.90;99.90
10123;DHT22;5101;49.038;8.710;2023-05-10T06:02:54;14.90;99.90
10123;DHT22;5101;49.038;8.710;2023-05-10T06:05:19;14.90;99.90
10123;DHT22;5101;49.038;8.710;2023-05-10T06:07:46;15.00;99.90
10123;DHT22;5101;49.038;8.710;2023-05-10T06:10:11;15.00;99.90
10123;DHT22;5101;49.038;8.710;2023-05-10T06:12:37;15.00;99.90
10123;DHT22;5101;49.038;8.710;2023-05-10T06:15:03;15.00;99.90
10123;DHT22;5101;49.038;8.710;2023-05-10T06:17:29;15.00;99.90
10123;DHT22;5101;49.038;8.710;2023-05-10T06:19:55;14.90;99.90
10123;DHT22;5101;49.038;8.710;2023-05-10T06:22:21;15.00;99.90
10123;DHT22;5101;49.038;8.710;2023-05-10T06:24:48;15.00;99.90
10123;DHT22;5101;49.038;8.710;2023-05-10T06:27:13;15.00;99.90
10123;DHT22;5101;49.038;8.710;2023-05-10T06:29:39;15.00;99.90
10123;DHT22;5101;49.038;8.710;2023-05-10T06:32:04;15.00;99.90
10123;DHT22;5101;49.038;8.710;2023-05-10T06:34:30;15.00;99.90
10123;DHT22;5101;49.038;8.710;2023-05-10T06:36:55;15.00;99.90
10123;DHT22;5101;49.038;8.710;2023-05-10T06:39:21;15.10;99.90
10123;DHT22;5101;49.038;8.710;2023-05-10T06:41:46;15.20;99.90
10123;DHT22;5101;49.038;8.710;2023-05-10T06:44:12;15.20;99.90
10123;DHT22;5101;49.038;8.710;2023-05-10T06:46:38;15.20;99.90
10123;DHT22;5101;49.038;8.710;2023-05-10T06:49:03;15.20;99.90
10123;DHT22;5101;49.038;8.710;2023-05-10T06:51:29;15.20;99.90
10123;DHT22;5101;49.038;8.710;2023-05-10T06:53:55;15.20;99.90
10123;DHT22;5101;49.038;8.710;2023-05-10T06:56:20;15.30;99.90
10123;DHT22;5101;49.038;8.710;2023-05-10T06:58:47;15.30;99.90
10123;DHT22;5101;49.038;8.710;2023-05-10T07:01:13;15.40;99.90
10123;DHT22;5101;49.038;8.710;2023-05-10T07:03:38;15.40;99.90
10123;DHT22;5101;49.038;8.710;2023-05-10T07:06:04;15.40;99.90
10123;DHT22;5101;49.038;8.710;2023-05-10T07:08:36;15.40;99.90
10123;DHT22;5101;49.038;8.710;2023-05-10T07:11:05;15.50;99.90
10123;DHT22;5101;49.038;8.710;2023-05-10T07:13:32;15.50;99.90
10123;DHT22;5101;49.038;8.710;2023-05-10T07:15:59;15.60;99.90
10123;DHT22;5101;49.038;8.710;2023-05-10T07:18:25;15.70;99.90
10123;DHT22;5101;49.038;8.710;2023-05-10T07:20:51;15.70;99.90
10123;DHT22;5101;49.038;8.710;2023-05-10T07:23:16;15.80;99.90
10123;DHT22;5101;49.038;8.710;2023-05-10T07:25:46;15.90;99.90
10123;DHT22;5101;49.038;8.710;2023-05-10T07:28:12;15.90;99.90
10123;DHT22;5101;49.038;8.710;2023-05-10T07:30:37;15.90;99.90
10123;DHT22;5101;49.038;8.710;2023-05-10T07:33:03;15.80;99.90
10123;DHT22;5101;49.038;8.710;2023-05-10T07:35:28;15.90;99.90
10123;DHT22;5101;49.038;8.710;2023-05-10T07:37:54;16.00;99.90
10123;DHT22;5101;49.038;8.710;2023-05-10T07:40:19;15.90;99.90
10123;DHT22;5101;49.038;8.710;2023-05-10T07:42:45;15.90;99.90
10123;DHT22;5101;49.038;8.710;2023-05-10T07:45:10;16.00;99.90
10123;DHT22;5101;49.038;8.710;2023-05-10T07:47:36;15.90;99.90
10123;DHT22;5101;49.038;8.710;2023-05-10T07:50:01;15.90;99.90
10123;DHT22;5101;49.038;8.710;2023-05-10T07:52:27;16.00;99.90
10123;DHT22;5101;49.038;8.710;2023-05-10T07:54:52;15.90;99.90
10123;DHT22;5101;49.038;8.710;2023-05-10T07:57:18;15.90;99.90
10123;DHT22;5101;49.038;8.710;2023-05-10T07:59:44;15.80;99.90
10123;DHT22;5101;49.038;8.710;2023-05-10T08:02:10;15.90;99.90
10123;DHT22;5101;49.038;8.710;2023-05-10T08:04:36;15.80;99.90
10123;DHT22;5101;49.038;8.710;2023-05-10T08:07:01;15.80;99.90
10123;DHT22;5101;49.038;8.710;2023-05-10T08:09:27;15.80;99.90
10123;DHT22;5101;49.038;8.710;2023-05-10T08:11:52;15.80;99.90
10123;DHT22;5101;49.038;8.710;2023-05-10T08:14:18;15.70;99.90
10123;DHT22;5101;49.038;8.710;2023-05-10T08:16:43;15.70;99.90
10123;DHT22;5101;49.038;8.710;2023-05-10T08:19:09;15.80;99.90
10123;DHT22;5101;49.038;8.710;2023-05-10T08:21:34;15.80;99.90
10123;DHT22;5101;49.038;8.710;2023-05-10T08:24:01;15.80;99.90
10123;DHT22;5101;49.038;8.710;2023-05-10T08:26:26;15.90;99.90
10123;DHT22;5101;49.038;8.710;2023-05-10T08:28:52;15.90;99.90
10123;DHT22;5101;49.038;8.710;2023-05-10T08:31:17;16.00;99.90
10123;DHT22;5101;49.038;8.710;2023-05-10T08:33:43;16.00;99.90
10123;DHT22;5101;49.038;8.710;2023-05-10T08:36:09;16.10;99.90
10123;DHT22;5101;49.038;8.710;2023-05-10T08:38:34;16.20;99.90
10123;DHT22;5101;49.038;8.710;2023-05-10T08:41:02;16.30;99.90
10123;DHT22;5101;49.038;8.710;2023-05-10T08:43:28;16.30;99.90
10123;DHT22;5101;49.038;8.710;2023-05-10T08:46:00;16.40;99.90
10123;DHT22;5101;49.038;8.710;2023-05-10T08:48:29;16.50;99.90
10123;DHT22;5101;49.038;8.710;2023-05-10T08:50:58;16.50;99.90
10123;DHT22;5101;49.038;8.710;2023-05-10T08:53:24;16.50;99.90
10123;DHT22;5101;49.038;8.710;2023-05-10T08:55:52;16.50;99.90
10123;DHT22;5101;49.038;8.710;2023-05-10T08:58:19;16.60;99.90
10123;DHT22;5101;49.038;8.710;2023-05-10T09:00:46;16.70;99.90
10123;DHT22;5101;49.038;8.710;2023-05-10T09:03:12;16.80;99.90
10123;DHT22;5101;49.038;8.710;2023-05-10T09:05:38;17.00;99.90
10123;DHT22;5101;49.038;8.710;2023-05-10T09:08:04;17.10;99.90
10123;DHT22;5101;49.038;8.710;2023-05-10T09:10:31;17.30;99.90
10123;DHT22;5101;49.038;8.710;2023-05-10T09:12:57;17.40;99.90
10123;DHT22;5101;49.038;8.710;2023-05-10T09:15:23;17.40;99.90
10123;DHT22;5101;49.038;8.710;2023-05-10T09:17:49;17.50;99.90
10123;DHT22;5101;49.038;8.710;2023-05-10T09:20:15;17.50;99.90
10123;DHT22;5101;49.038;8.710;2023-05-10T09:22:42;17.40;99.90
10123;DHT22;5101;49.038;8.710;2023-05-10T09:25:15;17.30;99.90
10123;DHT22;5101;49.038;8.710;2023-05-10T09:27:44;17.20;99.90
10123;DHT22;5101;49.038;8.710;2023-05-10T09:30:11;17.10;99.90
10123;DHT22;5101;49.038;8.710;2023-05-10T09:32:43;17.10;99.90
10123;DHT22;5101;49.038;8.710;2023-05-10T09:35:14;17.10;99.90
10123;DHT22;5101;49.038;8.710;2023-05-10T09:37:41;17.10;99.90
10123;DHT22;5101;49.038;8.710;2023-05-10T09:40:11;17.20;99.90
10123;DHT22;5101;49.038;8.710;2023-05-10T09:42:37;17.20;99.90
10123;DHT22;5101;49.038;8.710;2023-05-10T09:45:03;17.10;99.90
10123;DHT22;5101;49.038;8.710;2023-05-10T09:47:32;17.00;99.90
10123;DHT22;5101;49.038;8.710;2023-05-10T09:49:58;17.00;99.90
10123;DHT22;5101;49.038;8.710;2023-05-10T09:52:28;17.00;99.90
10123;DHT22;5101;49.038;8.710;2023-05-10T09:54:54;17.00;99.90
10123;DHT22;5101;49.038;8.710;2023-05-10T09:57:24;17.00;99.90
10123;DHT22;5101;49.038;8.710;2023-05-10T09:59:51;17.00;99.90
10123;DHT22;5101;49.038;8.710;2023-05-10T10:02:19;17.00;99.90
10123;DHT22;5101;49.038;8.710;2023-05-10T10:04:45;17.00;99.90
10123;DHT22;5101;49.038;8.710;2023-05-10T10:07:14;17.00;99.90
10123;DHT22;5101;49.038;8.710;2023-05-10T10:09:39;17.00;99.90
10123;DHT22;5101;49.038;8.710;2023-05-10T10:12:05;17.00;99.90
10123;DHT22;5101;49.038;8.710;2023-05-10T10:14:31;16.90;99.90
10123;DHT22;5101;49.038;8.710;2023-05-10T10:16:56;16.90;99.90
10123;DHT22;5101;49.038;8.710;2023-05-10T10:19:22;16.80;99.90
10123;DHT22;5101;49.038;8.710;2023-05-10T10:21:49;16.80;99.90
10123;DHT22;5101;49.038;8.710;2023-05-10T10:24:15;16.70;99.90
10123;DHT22;5101;49.038;8.710;2023-05-10T10:26:41;16.70;99.90
10123;DHT22;5101;49.038;8.710;2023-05-10T10:31:45;16.70;99.90
10123;DHT22;5101;49.038;8.710;2023-05-10T10:34:25;16.70;99.90
10123;DHT22;5101;49.038;8.710;2023-05-10T10:36:51;16.70;99.90
10123;DHT22;5101;49.038;8.710;2023-05-10T10:39:18;16.70;99.90
10123;DHT22;5101;49.038;8.710;2023-05-10T10:41:56;16.70;99.90
10123;DHT22;5101;49.038;8.710;2023-05-10T10:49:32;16.80;99.90
10123;DHT22;5101;49.038;8.710;2023-05-10T10:52:23;16.80;99.90
10123;DHT22;5101;49.038;8.710;2023-05-10T10:55:21;16.90;99.90
10123;DHT22;5101;49.038;8.710;2023-05-10T10:57:55;16.90;99.90
10123;DHT22;5101;49.038;8.710;2023-05-10T11:00:38;17.10;99.90
10123;DHT22;5101;49.038;8.710;2023-05-10T11:03:08;17.20;99.90
10123;DHT22;5101;49.038;8.710;2023-05-10T11:05:47;17.20;99.90
10123;DHT22;5101;49.038;8.710;2023-05-10T11:08:16;17.10;99.90
10123;DHT22;5101;49.038;8.710;2023-05-10T11:13:30;17.10;99.90
10123;DHT22;5101;49.038;8.710;2023-05-10T11:15:56;17.00;99.90
10123;DHT22;5101;49.038;8.710;2023-05-10T11:18:31;16.90;99.90
10123;DHT22;5101;49.038;8.710;2023-05-10T11:21:02;17.00;99.90
10123;DHT22;5101;49.038;8.710;2023-05-10T11:23:50;17.10;99.90
10123;DHT22;5101;49.038;8.710;2023-05-10T11:26:17;17.20;99.90
10123;DHT22;5101;49.038;8.710;2023-05-10T11:28:47;17.20;99.90
10123;DHT22;5101;49.038;8.710;2023-05-10T11:31:19;17.20;99.90
10123;DHT22;5101;49.038;8.710;2023-05-10T11:33:46;17.30;99.90
10123;DHT22;5101;49.038;8.710;2023-05-10T11:36:16;17.40;99.90
10123;DHT22;5101;49.038;8.710;2023-05-10T11:38:42;17.40;99.90
10123;DHT22;5101;49.038;8.710;2023-05-10T11:41:08;17.60;99.90
10123;DHT22;5101;49.038;8.710;2023-05-10T11:43:35;17.60;99.20
10123;DHT22;5101;49.038;8.710;2023-05-10T11:46:04;17.70;98.50
10123;DHT22;5101;49.038;8.710;2023-05-10T11:48:30;17.80;98.20
10123;DHT22;5101;49.038;8.710;2023-05-10T11:50:55;17.90;97.40
10123;DHT22;5101;49.038;8.710;2023-05-10T11:53:23;18.00;96.60
10123;DHT22;5101;49.038;8.710;2023-05-10T11:55:50;18.10;96.20
10123;DHT22;5101;49.038;8.710;2023-05-10T11:58:18;18.20;96.00
10123;DHT22;5101;49.038;8.710;2023-05-10T12:00:44;18.30;95.50
10123;DHT22;5101;49.038;8.710;2023-05-10T12:03:09;18.20;95.10
10123;DHT22;5101;49.038;8.710;2023-05-10T12:05:36;18.20;94.90
10123;DHT22;5101;49.038;8.710;2023-05-10T12:08:12;18.30;94.90
10123;DHT22;5101;49.038;8.710;2023-05-10T12:10:37;18.30;94.70
10123;DHT22;5101;49.038;8.710;2023-05-10T12:13:03;18.30;94.60
10123;DHT22;5101;49.038;8.710;2023-05-10T12:15:28;18.20;94.40
10123;DHT22;5101;49.038;8.710;2023-05-10T12:17:54;18.30;94.30
10123;DHT22;5101;49.038;8.710;2023-05-10T12:20:23;18.30;94.20
10123;DHT22;5101;49.038;8.710;2023-05-10T12:22:51;18.40;94.20
10123;DHT22;5101;49.038;8.710;2023-05-10T12:25:21;18.50;94.30
10123;DHT22;5101;49.038;8.710;2023-05-10T12:27:52;18.60;94.30
10123;DHT22;5101;49.038;8.710;2023-05-10T12:30:21;18.60;94.10
10123;DHT22;5101;49.038;8.710;2023-05-10T12:32:47;18.70;93.90
10123;DHT22;5101;49.038;8.710;2023-05-10T12:35:13;18.80;93.90
10123;DHT22;5101;49.038;8.710;2023-05-10T12:37:38;18.80;93.50
10123;DHT22;5101;49.038;8.710;2023-05-10T12:40:08;18.80;93.30
10123;DHT22;5101;49.038;8.710;2023-05-10T12:42:35;18.80;93.20
10123;DHT22;5101;49.038;8.710;2023-05-10T12:45:01;18.80;93.20
10123;DHT22;5101;49.038;8.710;2023-05-10T12:47:28;18.80;93.00
10123;DHT22;5101;49.038;8.710;2023-05-10T12:49:53;18.90;92.90
10123;DHT22;5101;49.038;8.710;2023-05-10T12:52:19;19.00;92.60
10123;DHT22;5101;49.038;8.710;2023-05-10T12:54:44;19.00;92.10
10123;DHT22;5101;49.038;8.710;2023-05-10T12:57:09;18.90;91.50
10123;DHT22;5101;49.038;8.710;2023-05-10T12:59:35;19.00;91.20
10123;DHT22;5101;49.038;8.710;2023-05-10T13:02:01;19.10;90.70
10123;DHT22;5101;49.038;8.710;2023-05-10T13:04:26;19.20;90.50
10123;DHT22;5101;49.038;8.710;2023-05-10T13:06:52;19.20;90.20
10123;DHT22;5101;49.038;8.710;2023-05-10T13:09:17;19.30;89.80
10123;DHT22;5101;49.038;8.710;2023-05-10T13:11:43;19.40;89.70
10123;DHT22;5101;49.038;8.710;2023-05-10T13:14:08;19.50;90.00
10123;DHT22;5101;49.038;8.710;2023-05-10T13:16:34;19.60;90.00
10123;DHT22;5101;49.038;8.710;2023-05-10T13:18:59;19.70;89.50
10123;DHT22;5101;49.038;8.710;2023-05-10T13:21:25;19.80;89.40
10123;DHT22;5101;49.038;8.710;2023-05-10T13:23:51;19.70;87.70
10123;DHT22;5101;49.038;8.710;2023-05-10T13:26:16;19.70;85.80
10123;DHT22;5101;49.038;8.710;2023-05-10T13:28:42;19.80;85.10
10123;DHT22;5101;49.038;8.710;2023-05-10T13:31:07;19.80;84.10
10123;DHT22;5101;49.038;8.710;2023-05-10T13:33:33;19.80;83.60
10123;DHT22;5101;49.038;8.710;2023-05-10T13:35:58;19.80;84.20
10123;DHT22;5101;49.038;8.710;2023-05-10T13:38:24;19.70;82.70
10123;DHT22;5101;49.038;8.710;2023-05-10T13:40:49;19.60;81.40
10123;DHT22;5101;49.038;8.710;2023-05-10T13:43:18;19.50;81.20
10123;DHT22;5101;49.038;8.710;2023-05-10T13:45:43;19.50;81.10
10123;DHT22;5101;49.038;8.710;2023-05-10T13:48:09;19.40;80.60
10123;DHT22;5101;49.038;8.710;2023-05-10T13:50:34;19.50;80.70
10123;DHT22;5101;49.038;8.710;2023-05-10T13:53:00;19.50;80.20
10123;DHT22;5101;49.038;8.710;2023-05-10T13:55:25;19.40;79.40
10123;DHT22;5101;49.038;8.710;2023-05-10T13:57:51;19.30;79.50
10123;DHT22;5101;49.038;8.710;2023-05-10T14:00:17;19.40;79.00
10123;DHT22;5101;49.038;8.710;2023-05-10T14:02:42;19.40;78.50
10123;DHT22;5101;49.038;8.710;2023-05-10T14:05:08;19.30;78.60
10123;DHT22;5101;49.038;8.710;2023-05-10T14:07:34;19.30;79.10
10123;DHT22;5101;49.038;8.710;2023-05-10T14:10:00;19.40;80.00
10123;DHT22;5101;49.038;8.710;2023-05-10T14:12:25;19.50;80.70
10123;DHT22;5101;49.038;8.710;2023-05-10T14:14:51;19.50;80.10
10123;DHT22;5101;49.038;8.710;2023-05-10T14:17:17;19.40;79.10
10123;DHT22;5101;49.038;8.710;2023-05-10T14:19:43;19.50;77.90
10123;DHT22;5101;49.038;8.710;2023-05-10T14:22:08;19.60;76.70
10123;DHT22;5101;49.038;8.710;2023-05-10T14:24:34;19.60;76.70
10123;DHT22;5101;49.038;8.710;2023-05-10T14:26:59;19.60;76.70
10123;DHT22;5101;49.038;8.710;2023-05-10T14:29:25;19.70;76.70
10123;DHT22;5101;49.038;8.710;2023-05-10T14:31:51;19.70;76.80
10123;DHT22;5101;49.038;8.710;2023-05-10T14:34:16;19.70;76.40
10123;DHT22;5101;49.038;8.710;2023-05-10T14:36:42;19.60;75.80
10123;DHT22;5101;49.038;8.710;2023-05-10T14:39:07;19.70;76.40
10123;DHT22;5101;49.038;8.710;2023-05-10T14:41:35;19.70;76.60
10123;DHT22;5101;49.038;8.710;2023-05-10T14:44:00;19.70;76.40
10123;DHT22;5101;49.038;8.710;2023-05-10T14:46:28;19.70;76.20
10123;DHT22;5101;49.038;8.710;2023-05-10T14:48:55;19.70;76.30
10123;DHT22;5101;49.038;8.710;2023-05-10T14:51:20;19.60;75.80
10123;DHT22;5101;49.038;8.710;2023-05-10T14:53:48;19.70;75.90
10123;DHT22;5101;49.038;8.710;2023-05-10T14:56:14;19.70;75.60
10123;DHT22;5101;49.038;8.710;2023-05-10T14:58:39;19.70;74.90
10123;DHT22;5101;49.038;8.710;2023-05-10T15:01:05;19.40;74.30
10123;DHT22;5101;49.038;8.710;2023-05-10T15:03:30;19.40;74.80
10123;DHT22;5101;49.038;8.710;2023-05-10T15:05:56;19.20;74.80
10123;DHT22;5101;49.038;8.710;2023-05-10T15:08:23;19.20;75.10
10123;DHT22;5101;49.038;8.710;2023-05-10T15:10:50;19.20;75.60
10123;DHT22;5101;49.038;8.710;2023-05-10T15:13:15;19.20;76.10
10123;DHT22;5101;49.038;8.710;2023-05-10T15:15:41;19.20;76.30
10123;DHT22;5101;49.038;8.710;2023-05-10T15:18:09;19.30;76.50
10123;DHT22;5101;49.038;8.710;2023-05-10T15:20:34;19.30;75.80
10123;DHT22;5101;49.038;8.710;2023-05-10T15:23:00;19.30;75.60
10123;DHT22;5101;49.038;8.710;2023-05-10T15:25:26;19.30;75.40
10123;DHT22;5101;49.038;8.710;2023-05-10T15:27:52;19.30;75.50
10123;DHT22;5101;49.038;8.710;2023-05-10T15:30:18;19.30;75.50
10123;DHT22;5101;49.038;8.710;2023-05-10T15:32:43;19.40;75.80
10123;DHT22;5101;49.038;8.710;2023-05-10T15:35:09;19.40;75.60
10123;DHT22;5101;49.038;8.710;2023-05-10T15:37:35;19.50;75.50
10123;DHT22;5101;49.038;8.710;2023-05-10T15:40:01;19.50;74.90
10123;DHT22;5101;49.038;8.710;2023-05-10T15:42:29;19.60;74.90
10123;DHT22;5101;49.038;8.710;2023-05-10T15:44:55;19.60;75.10
10123;DHT22;5101;49.038;8.710;2023-05-10T15:47:21;19.60;75.40
10123;DHT22;5101;49.038;8.710;2023-05-10T15:49:46;19.70;76.00
10123;DHT22;5101;49.038;8.710;2023-05-10T15:52:12;19.60;76.30
10123;DHT22;5101;49.038;8.710;2023-05-10T15:54:38;19.50;76.20
10123;DHT22;5101;49.038;8.710;2023-05-10T15:57:03;19.50;76.40
10123;DHT22;5101;49.038;8.710;2023-05-10T15:59:29;19.60;76.40
10123;DHT22;5101;49.038;8.710;2023-05-10T16:01:55;19.60;76.40
10123;DHT22;5101;49.038;8.710;2023-05-10T16:04:22;19.70;76.70